Fresh Pond, New York
Current Conditions -  °F | °C
As of 7:51 AM on Friday 19 Dec 2014 (Local Time) from KLGA Reporting Station
Overcast Overcast  
Wind Chill: 28°   Ceiling: 3600
Heat Index: 37°   Visibility: 10mi
Dew Point: 24°   Wind: 16mph
Humidity: 59%   Direction: 300°WNW
Pressure: 30.02"   Gusts: NA
Location:  40.7008°N, 73.8892°W
Report Text: KLGA 191251Z 30014KT 10SM OVC036 03/M04 A3002 RMK AO2 SLP165 T00281044
Loading
Personal Weather Stations






























Interactive Weather Map New forecast layout! Learn more

10-Day Weather Forecast

Advertisements
Track Severe Weather on mobile